sensor_id;sensor_type;location;lat;lon;timestamp;pressure;altitude;pressure_sealevel;temperature;humidity
2397;BME280;1209;48.410;9.054;2023-04-20T00:00:28;96137.66;;;6.01;100.00
2397;BME280;1209;48.410;9.054;2023-04-20T00:02:53;96141.00;;;5.93;100.00
2397;BME280;1209;48.410;9.054;2023-04-20T00:05:18;96129.22;;;5.81;100.00
2397;BME280;1209;48.410;9.054;2023-04-20T00:07:44;96130.75;;;5.56;100.00
2397;BME280;1209;48.410;9.054;2023-04-20T00:10:09;96133.41;;;5.64;100.00
2397;BME280;1209;48.410;9.054;2023-04-20T00:12:35;96133.22;;;5.76;100.00
2397;BME280;1209;48.410;9.054;2023-04-20T00:15:00;96124.25;;;5.88;100.00
2397;BME280;1209;48.410;9.054;2023-04-20T00:17:26;96117.91;;;6.00;100.00
2397;BME280;1209;48.410;9.054;2023-04-20T00:19:51;96116.13;;;6.00;100.00
2397;BME280;1209;48.410;9.054;2023-04-20T00:22:16;96111.09;;;5.99;100.00
2397;BME280;1209;48.410;9.054;2023-04-20T00:24:42;96104.63;;;6.03;100.00
2397;BME280;1209;48.410;9.054;2023-04-20T00:27:07;96103.25;;;5.91;100.00
2397;BME280;1209;48.410;9.054;2023-04-20T00:29:32;96100.66;;;5.91;100.00
2397;BME280;1209;48.410;9.054;2023-04-20T00:31:58;96109.78;;;5.67;100.00
2397;BME280;1209;48.410;9.054;2023-04-20T00:34:23;96102.44;;;5.73;100.00
2397;BME280;1209;48.410;9.054;2023-04-20T00:36:49;96097.38;;;5.35;100.00
2397;BME280;1209;48.410;9.054;2023-04-20T00:39:14;96093.97;;;5.53;100.00
2397;BME280;1209;48.410;9.054;2023-04-20T00:41:40;96084.72;;;5.50;100.00
2397;BME280;1209;48.410;9.054;2023-04-20T00:44:06;96088.56;;;5.64;100.00
2397;BME280;1209;48.410;9.054;2023-04-20T00:46:32;96073.13;;;5.72;100.00
2397;BME280;1209;48.410;9.054;2023-04-20T00:48:57;96082.19;;;5.23;100.00
2397;BME280;1209;48.410;9.054;2023-04-20T00:51:23;96082.94;;;5.33;100.00
2397;BME280;1209;48.410;9.054;2023-04-20T00:53:49;96084.34;;;5.45;100.00
2397;BME280;1209;48.410;9.054;2023-04-20T00:56:14;96081.00;;;5.53;100.00
2397;BME280;1209;48.410;9.054;2023-04-20T00:58:44;96077.47;;;5.36;100.00
2397;BME280;1209;48.410;9.054;2023-04-20T01:01:11;96075.69;;;5.36;100.00
2397;BME280;1209;48.410;9.054;2023-04-20T01:03:37;96070.72;;;5.25;100.00
2397;BME280;1209;48.410;9.054;2023-04-20T01:06:03;96065.44;;;4.99;100.00
2397;BME280;1209;48.410;9.054;2023-04-20T01:08:28;96059.22;;;5.10;100.00
2397;BME280;1209;48.410;9.054;2023-04-20T01:10:54;96060.34;;;5.07;100.00
2397;BME280;1209;48.410;9.054;2023-04-20T01:13:20;96050.50;;;5.11;100.00
2397;BME280;1209;48.410;9.054;2023-04-20T01:15:45;96041.09;;;5.10;100.00
2397;BME280;1209;48.410;9.054;2023-04-20T01:18:11;96056.03;;;4.98;100.00
2397;BME280;1209;48.410;9.054;2023-04-20T01:20:36;96040.66;;;4.69;100.00
2397;BME280;1209;48.410;9.054;2023-04-20T01:23:02;96041.31;;;4.99;100.00
2397;BME280;1209;48.410;9.054;2023-04-20T01:25:27;96038.81;;;5.07;100.00
2397;BME280;1209;48.410;9.054;2023-04-20T01:27:53;96029.44;;;5.06;100.00
2397;BME280;1209;48.410;9.054;2023-04-20T01:30:18;96028.91;;;5.02;100.00
2397;BME280;1209;48.410;9.054;2023-04-20T01:32:43;96029.34;;;4.98;100.00
2397;BME280;1209;48.410;9.054;2023-04-20T01:35:09;96032.69;;;5.08;100.00
2397;BME280;1209;48.410;9.054;2023-04-20T01:37:35;96023.66;;;5.12;100.00
2397;BME280;1209;48.410;9.054;2023-04-20T01:40:01;96020.56;;;5.09;100.00
2397;BME280;1209;48.410;9.054;2023-04-20T01:42:27;96019.81;;;4.98;100.00
2397;BME280;1209;48.410;9.054;2023-04-20T01:44:52;96017.38;;;4.97;100.00
2397;BME280;1209;48.410;9.054;2023-04-20T01:47:18;96012.78;;;4.91;100.00
2397;BME280;1209;48.410;9.054;2023-04-20T01:49:43;96011.22;;;4.53;100.00
2397;BME280;1209;48.410;9.054;2023-04-20T01:52:09;96011.16;;;4.62;100.00
2397;BME280;1209;48.410;9.054;2023-04-20T01:54:34;96004.59;;;4.68;100.00
2397;BME280;1209;48.410;9.054;2023-04-20T01:57:01;96011.44;;;4.87;100.00
2397;BME280;1209;48.410;9.054;2023-04-20T01:59:27;96003.16;;;4.83;100.00
2397;BME280;1209;48.410;9.054;2023-04-20T02:01:52;96005.25;;;4.70;100.00
2397;BME280;1209;48.410;9.054;2023-04-20T02:04:17;95991.22;;;4.72;100.00
2397;BME280;1209;48.410;9.054;2023-04-20T02:06:43;95997.34;;;4.17;100.00
2397;BME280;1209;48.410;9.054;2023-04-20T02:09:08;95997.72;;;4.22;100.00
2397;BME280;1209;48.410;9.054;2023-04-20T02:11:34;95992.44;;;4.14;100.00
2397;BME280;1209;48.410;9.054;2023-04-20T02:13:59;95988.72;;;4.35;100.00
2397;BME280;1209;48.410;9.054;2023-04-20T02:16:25;95996.41;;;4.45;100.00
2397;BME280;1209;48.410;9.054;2023-04-20T02:18:54;95984.00;;;4.49;100.00
2397;BME280;1209;48.410;9.054;2023-04-20T02:21:19;95983.09;;;4.40;100.00
2397;BME280;1209;48.410;9.054;2023-04-20T02:23:44;95979.09;;;4.28;100.00
2397;BME280;1209;48.410;9.054;2023-04-20T02:26:10;95981.25;;;4.32;100.00
2397;BME280;1209;48.410;9.054;2023-04-20T02:28:35;95983.19;;;4.48;100.00
2397;BME280;1209;48.410;9.054;2023-04-20T02:31:01;95980.97;;;4.35;100.00
2397;BME280;1209;48.410;9.054;2023-04-20T02:33:26;95972.22;;;4.09;100.00
2397;BME280;1209;48.410;9.054;2023-04-20T02:35:52;95961.88;;;4.09;100.00
2397;BME280;1209;48.410;9.054;2023-04-20T02:38:17;95963.88;;;4.15;100.00
2397;BME280;1209;48.410;9.054;2023-04-20T02:40:42;95964.94;;;4.22;100.00
2397;BME280;1209;48.410;9.054;2023-04-20T02:43:08;95956.22;;;4.23;100.00
2397;BME280;1209;48.410;9.054;2023-04-20T02:45:33;95951.94;;;4.14;100.00
2397;BME280;1209;48.410;9.054;2023-04-20T02:47:58;95945.94;;;4.14;100.00
2397;BME280;1209;48.410;9.054;2023-04-20T02:50:24;95946.41;;;3.99;100.00
2397;BME280;1209;48.410;9.054;2023-04-20T02:52:49;95949.91;;;4.08;100.00
2397;BME280;1209;48.410;9.054;2023-04-20T02:55:14;95948.19;;;3.99;100.00
2397;BME280;1209;48.410;9.054;2023-04-20T02:57:40;95939.97;;;4.13;100.00
2397;BME280;1209;48.410;9.054;2023-04-20T03:00:06;95942.25;;;4.16;100.00
2397;BME280;1209;48.410;9.054;2023-04-20T03:02:33;95942.22;;;3.98;100.00
2397;BME280;1209;48.410;9.054;2023-04-20T03:04:58;95942.16;;;4.08;100.00
2397;BME280;1209;48.410;9.054;2023-04-20T03:07:24;95936.75;;;4.01;100.00
2397;BME280;1209;48.410;9.054;2023-04-20T03:09:50;95927.84;;;3.86;100.00
2397;BME280;1209;48.410;9.054;2023-04-20T03:12:15;95924.84;;;3.91;100.00
2397;BME280;1209;48.410;9.054;2023-04-20T03:14:42;95913.16;;;3.87;100.00
2397;BME280;1209;48.410;9.054;2023-04-20T03:17:07;95911.97;;;3.81;100.00
2397;BME280;1209;48.410;9.054;2023-04-20T03:19:33;95919.56;;;3.83;100.00
2397;BME280;1209;48.410;9.054;2023-04-20T03:21:58;95915.69;;;3.96;100.00
2397;BME280;1209;48.410;9.054;2023-04-20T03:24:23;95916.91;;;4.02;100.00
2397;BME280;1209;48.410;9.054;2023-04-20T03:26:49;95907.81;;;3.98;100.00
2397;BME280;1209;48.410;9.054;2023-04-20T03:29:14;95912.13;;;4.07;100.00
2397;BME280;1209;48.410;9.054;2023-04-20T03:31:40;95911.31;;;4.06;100.00
2397;BME280;1209;48.410;9.054;2023-04-20T03:34:05;95912.06;;;3.89;100.00
2397;BME280;1209;48.410;9.054;2023-04-20T03:36:30;95921.53;;;3.98;100.00
2397;BME280;1209;48.410;9.054;2023-04-20T03:38:56;95905.84;;;3.82;100.00
2397;BME280;1209;48.410;9.054;2023-04-20T03:41:22;95906.75;;;3.91;100.00
2397;BME280;1209;48.410;9.054;2023-04-20T03:43:47;95909.34;;;3.91;100.00
2397;BME280;1209;48.410;9.054;2023-04-20T03:46:12;95901.97;;;3.96;100.00
2397;BME280;1209;48.410;9.054;2023-04-20T03:48:38;95904.31;;;3.89;100.00
2397;BME280;1209;48.410;9.054;2023-04-20T03:51:03;95898.06;;;3.92;100.00
2397;BME280;1209;48.410;9.054;2023-04-20T03:53:28;95902.84;;;3.87;100.00
2397;BME280;1209;48.410;9.054;2023-04-20T03:55:54;95901.50;;;3.83;100.00
2397;BME280;1209;48.410;9.054;2023-04-20T03:58:20;95903.28;;;3.72;100.00
2397;BME280;1209;48.410;9.054;2023-04-20T04:00:45;95899.91;;;3.62;100.00
2397;BME280;1209;48.410;9.054;2023-04-20T04:03:11;95894.25;;;3.49;100.00
2397;BME280;1209;48.410;9.054;2023-04-20T04:05:36;95902.56;;;3.43;100.00
2397;BME280;1209;48.410;9.054;2023-04-20T04:08:02;95902.41;;;3.44;100.00
2397;BME280;1209;48.410;9.054;2023-04-20T04:10:27;95905.13;;;3.43;100.00
2397;BME280;1209;48.410;9.054;2023-04-20T04:12:52;95906.06;;;3.52;100.00
2397;BME280;1209;48.410;9.054;2023-04-20T04:15:18;95903.47;;;3.52;100.00
2397;BME280;1209;48.410;9.054;2023-04-20T04:17:43;95899.66;;;3.56;100.00
2397;BME280;1209;48.410;9.054;2023-04-20T04:20:10;95904.28;;;3.52;100.00
2397;BME280;1209;48.410;9.054;2023-04-20T04:22:36;95900.81;;;3.24;100.00
2397;BME280;1209;48.410;9.054;2023-04-20T04:25:01;95897.41;;;3.43;100.00
2397;BME280;1209;48.410;9.054;2023-04-20T04:27:27;95902.25;;;3.56;100.00
2397;BME280;1209;48.410;9.054;2023-04-20T04:29:54;95895.03;;;3.59;100.00
2397;BME280;1209;48.410;9.054;2023-04-20T04:32:21;95902.28;;;3.46;100.00
2397;BME280;1209;48.410;9.054;2023-04-20T04:34:48;95897.94;;;3.46;100.00
2397;BME280;1209;48.410;9.054;2023-04-20T04:37:14;95898.22;;;3.43;100.00
2397;BME280;1209;48.410;9.054;2023-04-20T04:39:39;95890.59;;;3.42;100.00
2397;BME280;1209;48.410;9.054;2023-04-20T04:42:05;95897.13;;;3.36;100.00
2397;BME280;1209;48.410;9.054;2023-04-20T04:44:30;95900.66;;;3.45;100.00
2397;BME280;1209;48.410;9.054;2023-04-20T04:46:56;95895.50;;;3.45;100.00
2397;BME280;1209;48.410;9.054;2023-04-20T04:49:22;95893.44;;;3.48;100.00
2397;BME280;1209;48.410;9.054;2023-04-20T04:51:48;95897.38;;;3.53;100.00
2397;BME280;1209;48.410;9.054;2023-04-20T04:54:14;95894.41;;;3.47;100.00
2397;BME280;1209;48.410;9.054;2023-04-20T04:56:39;95897.25;;;3.44;100.00
2397;BME280;1209;48.410;9.054;2023-04-20T04:59:04;95901.34;;;3.37;100.00
2397;BME280;1209;48.410;9.054;2023-04-20T05:01:30;95898.91;;;3.36;100.00
2397;BME280;1209;48.410;9.054;2023-04-20T05:03:55;95893.22;;;3.32;100.00
2397;BME280;1209;48.410;9.054;2023-04-20T05:06:20;95895.78;;;3.32;100.00
2397;BME280;1209;48.410;9.054;2023-04-20T05:08:46;95904.31;;;3.42;100.00
2397;BME280;1209;48.410;9.054;2023-04-20T05:11:11;95904.47;;;3.41;100.00
2397;BME280;1209;48.410;9.054;2023-04-20T05:13:36;95902.81;;;3.50;100.00
2397;BME280;1209;48.410;9.054;2023-04-20T05:16:02;95891.00;;;3.47;100.00
2397;BME280;1209;48.410;9.054;2023-04-20T05:18:27;95898.91;;;3.36;100.00
2397;BME280;1209;48.410;9.054;2023-04-20T05:20:53;95897.81;;;3.38;100.00
2397;BME280;1209;48.410;9.054;2023-04-20T05:23:18;95897.53;;;3.41;100.00
2397;BME280;1209;48.410;9.054;2023-04-20T05:25:43;95901.50;;;3.36;100.00
2397;BME280;1209;48.410;9.054;2023-04-20T05:28:09;95903.94;;;3.37;100.00
2397;BME280;1209;48.410;9.054;2023-04-20T05:30:34;95900.25;;;3.40;100.00
2397;BME280;1209;48.410;9.054;2023-04-20T05:33:00;95906.63;;;3.45;100.00
2397;BME280;1209;48.410;9.054;2023-04-20T05:35:25;95912.19;;;3.51;100.00
2397;BME280;1209;48.410;9.054;2023-04-20T05:37:51;95906.84;;;3.62;100.00
2397;BME280;1209;48.410;9.054;2023-04-20T05:40:16;95913.03;;;3.41;100.00
2397;BME280;1209;48.410;9.054;2023-04-20T05:42:41;95903.66;;;3.40;100.00
2397;BME280;1209;48.410;9.054;2023-04-20T05:45:07;95908.41;;;3.45;100.00
2397;BME280;1209;48.410;9.054;2023-04-20T05:47:33;95906.91;;;3.42;100.00
2397;BME280;1209;48.410;9.054;2023-04-20T05:49:58;95902.16;;;3.38;100.00
2397;BME280;1209;48.410;9.054;2023-04-20T05:52:24;95909.91;;;3.38;100.00
2397;BME280;1209;48.410;9.054;2023-04-20T05:54:49;95912.34;;;3.39;100.00
2397;BME280;1209;48.410;9.054;2023-04-20T05:57:14;95904.59;;;3.39;100.00
2397;BME280;1209;48.410;9.054;2023-04-20T05:59:40;95905.53;;;3.48;100.00
2397;BME280;1209;48.410;9.054;2023-04-20T06:02:05;95911.09;;;3.53;100.00
2397;BME280;1209;48.410;9.054;2023-04-20T06:04:31;95909.44;;;3.62;100.00
2397;BME280;1209;48.410;9.054;2023-04-20T06:06:56;95905.25;;;3.51;100.00
2397;BME280;1209;48.410;9.054;2023-04-20T06:09:21;95905.63;;;3.56;100.00
2397;BME280;1209;48.410;9.054;2023-04-20T06:11:47;95905.91;;;3.53;100.00
2397;BME280;1209;48.410;9.054;2023-04-20T06:14:12;95905.81;;;3.45;100.00
2397;BME280;1209;48.410;9.054;2023-04-20T06:16:39;95904.16;;;3.54;100.00
2397;BME280;1209;48.410;9.054;2023-04-20T06:19:04;95894.22;;;3.59;100.00
2397;BME280;1209;48.410;9.054;2023-04-20T06:21:29;95897.22;;;3.54;100.00
2397;BME280;1209;48.410;9.054;2023-04-20T06:23:57;95897.22;;;3.54;100.00
2397;BME280;1209;48.410;9.054;2023-04-20T06:26:22;95897.53;;;3.41;100.00
2397;BME280;1209;48.410;9.054;2023-04-20T06:28:47;95895.06;;;3.50;100.00
2397;BME280;1209;48.410;9.054;2023-04-20T06:31:13;95902.00;;;3.49;100.00
2397;BME280;1209;48.410;9.054;2023-04-20T06:33:38;95893.84;;;3.44;100.00
2397;BME280;1209;48.410;9.054;2023-04-20T06:36:06;95897.66;;;3.50;100.00
2397;BME280;1209;48.410;9.054;2023-04-20T06:38:32;95893.47;;;3.39;100.00
2397;BME280;1209;48.410;9.054;2023-04-20T06:40:57;95892.78;;;3.37;100.00
2397;BME280;1209;48.410;9.054;2023-04-20T06:43:26;95888.88;;;3.33;100.00
2397;BME280;1209;48.410;9.054;2023-04-20T06:45:51;95896.56;;;3.52;100.00
2397;BME280;1209;48.410;9.054;2023-04-20T06:48:16;95903.41;;;3.71;100.00
2397;BME280;1209;48.410;9.054;2023-04-20T06:50:42;95893.06;;;3.43;100.00
2397;BME280;1209;48.410;9.054;2023-04-20T06:53:07;95893.94;;;3.62;100.00
2397;BME280;1209;48.410;9.054;2023-04-20T06:55:32;95893.63;;;3.74;100.00
2397;BME280;1209;48.410;9.054;2023-04-20T06:57:58;95891.50;;;3.97;100.00
2397;BME280;1209;48.410;9.054;2023-04-20T07:00:23;95890.88;;;3.76;100.00
2397;BME280;1209;48.410;9.054;2023-04-20T07:02:51;95880.41;;;3.77;100.00
2397;BME280;1209;48.410;9.054;2023-04-20T07:05:17;95869.06;;;3.98;100.00
2397;BME280;1209;48.410;9.054;2023-04-20T07:07:43;95877.63;;;3.98;100.00
2397;BME280;1209;48.410;9.054;2023-04-20T07:10:10;95882.25;;;4.22;100.00
2397;BME280;1209;48.410;9.054;2023-04-20T07:12:36;95879.19;;;4.09;100.00
2397;BME280;1209;48.410;9.054;2023-04-20T07:15:03;95878.69;;;4.33;100.00
2397;BME280;1209;48.410;9.054;2023-04-20T07:17:29;95883.41;;;4.55;100.00
2397;BME280;1209;48.410;9.054;2023-04-20T07:19:55;95884.09;;;4.57;100.00
2397;BME280;1209;48.410;9.054;2023-04-20T07:22:21;95881.28;;;4.51;100.00
2397;BME280;1209;48.410;9.054;2023-04-20T07:24:46;95884.66;;;4.51;100.00
2397;BME280;1209;48.410;9.054;2023-04-20T07:27:12;95879.06;;;4.56;100.00
2397;BME280;1209;48.410;9.054;2023-04-20T07:29:38;95878.59;;;4.42;100.00
2397;BME280;1209;48.410;9.054;2023-04-20T07:32:03;95893.53;;;4.21;100.00
2397;BME280;1209;48.410;9.054;2023-04-20T07:34:29;95888.00;;;4.16;100.00
2397;BME280;1209;48.410;9.054;2023-04-20T07:36:54;95886.59;;;4.49;100.00
2397;BME280;1209;48.410;9.054;2023-04-20T07:39:20;95890.72;;;4.60;100.00
2397;BME280;1209;48.410;9.054;2023-04-20T07:41:45;95886.59;;;4.49;100.00
2397;BME280;1209;48.410;9.054;2023-04-20T07:44:12;95882.59;;;4.55;100.00
2397;BME280;1209;48.410;9.054;2023-04-20T07:46:37;95884.31;;;4.46;100.00
2397;BME280;1209;48.410;9.054;2023-04-20T07:49:03;95886.81;;;4.56;100.00
2397;BME280;1209;48.410;9.054;2023-04-20T07:51:28;95893.09;;;4.71;100.00
2397;BME280;1209;48.410;9.054;2023-04-20T07:53:54;95886.84;;;4.73;100.00
2397;BME280;1209;48.410;9.054;2023-04-20T07:56:21;95892.69;;;4.76;100.00
2397;BME280;1209;48.410;9.054;2023-04-20T07:58:46;95885.13;;;4.64;100.00
2397;BME280;1209;48.410;9.054;2023-04-20T08:01:11;95885.03;;;4.56;100.00
2397;BME280;1209;48.410;9.054;2023-04-20T08:03:37;95882.97;;;4.60;100.00
2397;BME280;1209;48.410;9.054;2023-04-20T08:06:02;95878.34;;;4.81;100.00
2397;BME280;1209;48.410;9.054;2023-04-20T08:08:27;95885.88;;;4.74;100.00
2397;BME280;1209;48.410;9.054;2023-04-20T08:10:56;95885.47;;;4.69;100.00
2397;BME280;1209;48.410;9.054;2023-04-20T08:13:22;95886.03;;;4.73;100.00
2397;BME280;1209;48.410;9.054;2023-04-20T08:15:47;95876.97;;;4.41;100.00
2397;BME280;1209;48.410;9.054;2023-04-20T08:18:12;95879.78;;;4.30;100.00
2397;BME280;1209;48.410;9.054;2023-04-20T08:20:38;95875.50;;;4.57;100.00
2397;BME280;1209;48.410;9.054;2023-04-20T08:23:03;95877.34;;;4.47;100.00
2397;BME280;1209;48.410;9.054;2023-04-20T08:25:28;95868.28;;;4.78;100.00
2397;BME280;1209;48.410;9.054;2023-04-20T08:27:56;95863.03;;;4.88;100.00
2397;BME280;1209;48.410;9.054;2023-04-20T08:30:21;95866.00;;;4.75;100.00
2397;BME280;1209;48.410;9.054;2023-04-20T08:32:47;95865.16;;;4.92;100.00
2397;BME280;1209;48.410;9.054;2023-04-20T08:35:12;95859.09;;;5.01;100.00
2397;BME280;1209;48.410;9.054;2023-04-20T08:37:37;95858.06;;;4.59;100.00
2397;BME280;1209;48.410;9.054;2023-04-20T08:40:03;95853.63;;;4.69;100.00
2397;BME280;1209;48.410;9.054;2023-04-20T08:42:30;95862.94;;;4.97;100.00
2397;BME280;1209;48.410;9.054;2023-04-20T08:44:56;95859.28;;;4.82;100.00
2397;BME280;1209;48.410;9.054;2023-04-20T08:47:22;95854.91;;;4.65;100.00
2397;BME280;1209;48.410;9.054;2023-04-20T08:49:51;95852.25;;;4.57;100.00
2397;BME280;1209;48.410;9.054;2023-04-20T08:52:17;95854.75;;;4.66;100.00
2397;BME280;1209;48.410;9.054;2023-04-20T08:54:42;95852.97;;;4.67;100.00
2397;BME280;1209;48.410;9.054;2023-04-20T08:57:08;95859.41;;;4.63;100.00
2397;BME280;1209;48.410;9.054;2023-04-20T08:59:35;95859.63;;;4.69;100.00
2397;BME280;1209;48.410;9.054;2023-04-20T09:02:12;95858.00;;;4.86;100.00
2397;BME280;1209;48.410;9.054;2023-04-20T09:04:40;95865.34;;;4.73;100.00
2397;BME280;1209;48.410;9.054;2023-04-20T09:07:06;95859.31;;;4.72;100.00
2397;BME280;1209;48.410;9.054;2023-04-20T09:09:40;95855.34;;;4.96;100.00
2397;BME280;1209;48.410;9.054;2023-04-20T09:12:06;95861.63;;;4.93;100.00
2397;BME280;1209;48.410;9.054;2023-04-20T09:14:42;95861.41;;;4.87;100.00
2397;BME280;1209;48.410;9.054;2023-04-20T09:17:08;95852.81;;;5.04;100.00
2397;BME280;1209;48.410;9.054;2023-04-20T09:19:38;95842.06;;;5.17;100.00
2397;BME280;1209;48.410;9.054;2023-04-20T09:22:04;95850.72;;;5.25;100.00
2397;BME280;1209;48.410;9.054;2023-04-20T09:24:35;95846.66;;;5.23;100.00
2397;BME280;1209;48.410;9.054;2023-04-20T09:27:21;95840.66;;;5.22;100.00
2397;BME280;1209;48.410;9.054;2023-04-20T09:30:00;95845.84;;;5.22;100.00
2397;BME280;1209;48.410;9.054;2023-04-20T09:32:27;95842.28;;;5.23;100.00
2397;BME280;1209;48.410;9.054;2023-04-20T09:34:53;95851.66;;;5.24;100.00
2397;BME280;1209;48.410;9.054;2023-04-20T09:37:19;95851.00;;;5.48;100.00
2397;BME280;1209;48.410;9.054;2023-04-20T09:39:46;95849.75;;;5.26;100.00
2397;BME280;1209;48.410;9.054;2023-04-20T09:42:12;95837.78;;;5.07;100.00
2397;BME280;1209;48.410;9.054;2023-04-20T09:44:39;95848.53;;;5.38;100.00
2397;BME280;1209;48.410;9.054;2023-04-20T09:47:05;95847.75;;;5.46;100.00
2397;BME280;1209;48.410;9.054;2023-04-20T09:49:31;95845.56;;;5.59;100.00
2397;BME280;1209;48.410;9.054;2023-04-20T09:52:01;95848.19;;;5.67;100.00
2397;BME280;1209;48.410;9.054;2023-04-20T09:54:27;95845.47;;;5.69;100.00
2397;BME280;1209;48.410;9.054;2023-04-20T09:56:53;95838.69;;;5.76;100.00
2397;BME280;1209;48.410;9.054;2023-04-20T09:59:20;95849.16;;;5.66;100.00
2397;BME280;1209;48.410;9.054;2023-04-20T10:01:45;95847.69;;;5.64;100.00
2397;BME280;1209;48.410;9.054;2023-04-20T10:04:11;95840.00;;;5.80;100.00
2397;BME280;1209;48.410;9.054;2023-04-20T10:06:39;95836.34;;;5.65;100.00
2397;BME280;1209;48.410;9.054;2023-04-20T10:09:06;95823.34;;;5.49;100.00
2397;BME280;1209;48.410;9.054;2023-04-20T10:11:39;95819.50;;;5.61;100.00
2397;BME280;1209;48.410;9.054;2023-04-20T10:14:18;95818.38;;;5.63;100.00
2397;BME280;1209;48.410;9.054;2023-04-20T10:16:45;95808.00;;;5.63;100.00
2397;BME280;1209;48.410;9.054;2023-04-20T10:19:22;95801.44;;;5.69;100.00
2397;BME280;1209;48.410;9.054;2023-04-20T10:21:49;95788.09;;;5.90;100.00
2397;BME280;1209;48.410;9.054;2023-04-20T10:24:27;95789.19;;;5.87;100.00
2397;BME280;1209;48.410;9.054;2023-04-20T10:26:53;95787.47;;;6.04;100.00
2397;BME280;1209;48.410;9.054;2023-04-20T10:29:25;95781.16;;;6.07;100.00
2397;BME280;1209;48.410;9.054;2023-04-20T10:31:51;95786.03;;;6.10;100.00
2397;BME280;1209;48.410;9.054;2023-04-20T10:34:34;95786.22;;;6.16;100.00
2397;BME280;1209;48.410;9.054;2023-04-20T10:37:07;95780.56;;;6.21;100.00
2397;BME280;1209;48.410;9.054;2023-04-20T10:39:34;95778.31;;;6.26;100.00
2397;BME280;1209;48.410;9.054;2023-04-20T10:42:01;95778.78;;;6.38;100.00
2397;BME280;1209;48.410;9.054;2023-04-20T10:44:27;95771.19;;;6.36;100.00
2397;BME280;1209;48.410;9.054;2023-04-20T10:46:53;95764.53;;;6.25;100.00
2397;BME280;1209;48.410;9.054;2023-04-20T10:49:27;95761.78;;;6.27;100.00
2397;BME280;1209;48.410;9.054;2023-04-20T10:51:55;95765.50;;;6.49;100.00
2397;BME280;1209;48.410;9.054;2023-04-20T10:54:21;95760.19;;;6.75;100.00
2397;BME280;1209;48.410;9.054;2023-04-20T10:56:51;95754.16;;;6.58;100.00
2397;BME280;1209;48.410;9.054;2023-04-20T10:59:22;95754.00;;;6.43;100.00
2397;BME280;1209;48.410;9.054;2023-04-20T11:01:48;95746.22;;;6.51;100.00
2397;BME280;1209;48.410;9.054;2023-04-20T11:04:14;95738.75;;;6.40;100.00
2397;BME280;1209;48.410;9.054;2023-04-20T11:06:41;95741.69;;;6.37;100.00
2397;BME280;1209;48.410;9.054;2023-04-20T11:09:23;95753.50;;;6.48;100.00
2397;BME280;1209;48.410;9.054;2023-04-20T11:12:07;95750.59;;;6.59;100.00
2397;BME280;1209;48.410;9.054;2023-04-20T11:14:38;95760.66;;;6.54;100.00
2397;BME280;1209;48.410;9.054;2023-04-20T11:17:35;95757.56;;;6.58;100.00
2397;BME280;1209;48.410;9.054;2023-04-20T11:20:07;95763.09;;;6.63;100.00
2397;BME280;1209;48.410;9.054;2023-04-20T11:22:35;95753.53;;;6.64;100.00
2397;BME280;1209;48.410;9.054;2023-04-20T11:25:05;95761.63;;;6.85;100.00
2397;BME280;1209;48.410;9.054;2023-04-20T11:27:31;95760.66;;;6.86;100.00
2397;BME280;1209;48.410;9.054;2023-04-20T11:29:57;95766.16;;;6.83;100.00
2397;BME280;1209;48.410;9.054;2023-04-20T11:32:24;95766.13;;;7.00;100.00
2397;BME280;1209;48.410;9.054;2023-04-20T11:35:01;95761.75;;;7.08;100.00
2397;BME280;1209;48.410;9.054;2023-04-20T11:37:27;95767.09;;;7.07;100.00
2397;BME280;1209;48.410;9.054;2023-04-20T11:40:04;95761.59;;;6.93;100.00
2397;BME280;1209;48.410;9.054;2023-04-20T11:42:32;95769.38;;;7.18;100.00
2397;BME280;1209;48.410;9.054;2023-04-20T11:44:58;95760.09;;;7.23;100.00
2397;BME280;1209;48.410;9.054;2023-04-20T11:47:24;95763.53;;;7.08;100.00
2397;BME280;1209;48.410;9.054;2023-04-20T11:49:49;95766.78;;;6.93;100.00
2397;BME280;1209;48.410;9.054;2023-04-20T11:52:14;95759.97;;;7.01;100.00
2397;BME280;1209;48.410;9.054;2023-04-20T11:54:40;95760.97;;;6.83;100.00
2397;BME280;1209;48.410;9.054;2023-04-20T11:57:05;95756.59;;;6.84;100.00
2397;BME280;1209;48.410;9.054;2023-04-20T11:59:31;95758.72;;;6.80;100.00
2397;BME280;1209;48.410;9.054;2023-04-20T12:01:57;95753.53;;;6.72;100.00
2397;BME280;1209;48.410;9.054;2023-04-20T12:04:22;95757.25;;;6.61;100.00
2397;BME280;1209;48.410;9.054;2023-04-20T12:06:48;95743.31;;;6.54;100.00
2397;BME280;1209;48.410;9.054;2023-04-20T12:09:13;95736.50;;;6.53;100.00
2397;BME280;1209;48.410;9.054;2023-04-20T12:11:39;95737.78;;;6.57;100.00
2397;BME280;1209;48.410;9.054;2023-04-20T12:14:04;95742.81;;;6.59;100.00
2397;BME280;1209;48.410;9.054;2023-04-20T12:16:29;95741.19;;;6.58;100.00
2397;BME280;1209;48.410;9.054;2023-04-20T12:18:55;95752.56;;;6.65;100.00
2397;BME280;1209;48.410;9.054;2023-04-20T12:21:20;95746.72;;;6.63;100.00
2397;BME280;1209;48.410;9.054;2023-04-20T12:23:46;95747.22;;;6.67;100.00
2397;BME280;1209;48.410;9.054;2023-04-20T12:26:13;95740.53;;;6.56;100.00
2397;BME280;1209;48.410;9.054;2023-04-20T12:28:39;95745.25;;;6.52;100.00
2397;BME280;1209;48.410;9.054;2023-04-20T12:31:04;95737.31;;;6.46;100.00
2397;BME280;1209;48.410;9.054;2023-04-20T12:33:29;95740.72;;;6.62;100.00
2397;BME280;1209;48.410;9.054;2023-04-20T12:35:55;95737.63;;;6.75;100.00
2397;BME280;1209;48.410;9.054;2023-04-20T12:38:20;95737.00;;;6.65;100.00
2397;BME280;1209;48.410;9.054;2023-04-20T12:40:46;95735.38;;;6.72;100.00
2397;BME280;1209;48.410;9.054;2023-04-20T12:43:11;95740.00;;;7.01;100.00
2397;BME280;1209;48.410;9.054;2023-04-20T12:45:36;95741.78;;;7.17;100.00
2397;BME280;1209;48.410;9.054;2023-04-20T12:48:02;95752.78;;;7.27;100.00
2397;BME280;1209;48.410;9.054;2023-04-20T12:50:27;95749.84;;;7.38;100.00
2397;BME280;1209;48.410;9.054;2023-04-20T12:52:53;95746.16;;;7.24;100.00
2397;BME280;1209;48.410;9.054;2023-04-20T12:55:23;95746.31;;;7.23;100.00
2397;BME280;1209;48.410;9.054;2023-04-20T12:57:49;95744.97;;;7.35;100.00
2397;BME280;1209;48.410;9.054;2023-04-20T13:00:15;95744.81;;;7.37;100.00
2397;BME280;1209;48.410;9.054;2023-04-20T13:02:41;95741.00;;;7.55;100.00
2397;BME280;1209;48.410;9.054;2023-04-20T13:05:07;95744.25;;;7.57;100.00
2397;BME280;1209;48.410;9.054;2023-04-20T13:07:32;95747.16;;;7.63;100.00
2397;BME280;1209;48.410;9.054;2023-04-20T13:09:59;95739.88;;;7.50;100.00
2397;BME280;1209;48.410;9.054;2023-04-20T13:12:24;95741.66;;;7.49;100.00
2397;BME280;1209;48.410;9.054;2023-04-20T13:14:50;95742.34;;;7.43;100.00
2397;BME280;1209;48.410;9.054;2023-04-20T13:17:16;95747.56;;;7.35;100.00